04:57
Airports
History
Links
Donate
Help keep this website running!
PayPal
Bitcoin
This page is community maintained. The information is intended for PC simulator navigation or reference.
Always use approved charts for navigation.
SWSK
Fazenda Sao Marco
Fazenda Sao Marco (SWSK)
Boa Vista, Roraima, Brazil (69380)
4
Lat/Lng:3° 2' 59" N / 60° 29' 2" W
3.049722 / -60.483889
Elevation:295'ft / 90mMSL
ID / ICAO:SWSK
Runways:1
Longest:16-34
Grass 1,497m / 4,910ft
Nearby Weather04:00 GMT 2017-10-20
Nearby weather at SBBV, Boa Vista Intl located 20.0 nautical miles from SWSK
Altimeter: 29.83
Visibility: 6.2 statute miles
Wind: 6 knots (from 070°)
Temp: 27°c / 81°f
Humidity: 78.8%

METAR: SBBV 200400Z 07006KT 9999 FEW020 27/23 Q1010

(Powered by phpweather)
Nearby VORs <50NM
Nearby NDBs
Runway 16 / 34
Dimensions:1496.7 x 60.1m 4910' x 197'ft
Surface:Grass
Runway 16 [A]Runway 34 [B]
Heading:145°TH 325°TH
Lat:
Lng:
3° 3' 18.97"N
60° 29' 15.88"W
3° 2' 39.03"N
60° 28' 48.12"W
User Notes and Comments
3° 2' 59" N / 60° 29' 2" W
Distance To
Airport ID:
Nearby Airports
4 Ouro Fino 18.0 NM
SWOF WSW 244°
(U) Pouso da Aguia 19.7 NM
SWPD SSW 201°
(C) Boa Vista Intl 20.0 NM
SBBV ( WX ) SW 225°
4 Novo Intento 20.8 NM
SWNN SSW 206°
4 Milho 23.8 NM
SJLT NNE 12°
4 Manoa - Pium 27.2 NM
SJLP E 100°
4 Lago Grande 1 28.6 NM
SJLK NNE 18°
VFR Chart
Flight Planning at SkyVector.com